sensor_id;sensor_type;location;lat;lon;timestamp;pressure;altitude;pressure_sealevel;temperature;humidity
13974;BME280;7060;43.770;4.008;2023-03-14T00:02:22;100433.97;;;11.24;72.43
13974;BME280;7060;43.770;4.008;2023-03-14T00:04:53;100440.16;;;11.24;71.77
13974;BME280;7060;43.770;4.008;2023-03-14T00:07:22;100444.13;;;11.20;71.52
13974;BME280;7060;43.770;4.008;2023-03-14T00:09:51;100435.28;;;11.19;71.50
13974;BME280;7060;43.770;4.008;2023-03-14T00:12:21;100449.63;;;11.18;71.66
13974;BME280;7060;43.770;4.008;2023-03-14T00:14:50;100467.31;;;11.11;71.85
13974;BME280;7060;43.770;4.008;2023-03-14T00:17:18;100483.44;;;11.19;72.08
13974;BME280;7060;43.770;4.008;2023-03-14T00:19:47;100486.78;;;11.22;72.34
13974;BME280;7060;43.770;4.008;2023-03-14T00:22:19;100470.13;;;11.10;71.94
13974;BME280;7060;43.770;4.008;2023-03-14T00:24:48;100494.81;;;11.22;71.94
13974;BME280;7060;43.770;4.008;2023-03-14T00:27:16;100496.81;;;11.19;72.24
13974;BME280;7060;43.770;4.008;2023-03-14T00:29:46;100487.25;;;11.17;72.47
13974;BME280;7060;43.770;4.008;2023-03-14T00:32:15;100478.53;;;11.15;72.66
13974;BME280;7060;43.770;4.008;2023-03-14T00:34:43;100472.19;;;11.16;72.92
13974;BME280;7060;43.770;4.008;2023-03-14T00:37:11;100455.47;;;11.14;72.78
13974;BME280;7060;43.770;4.008;2023-03-14T00:39:40;100454.63;;;11.13;73.36
13974;BME280;7060;43.770;4.008;2023-03-14T00:42:09;100460.81;;;11.14;73.05
13974;BME280;7060;43.770;4.008;2023-03-14T00:44:38;100454.09;;;11.10;73.06
13974;BME280;7060;43.770;4.008;2023-03-14T00:47:08;100457.38;;;11.04;73.27
13974;BME280;7060;43.770;4.008;2023-03-14T00:49:36;100436.81;;;11.04;73.17
13974;BME280;7060;43.770;4.008;2023-03-14T00:52:05;100439.50;;;11.04;72.86
13974;BME280;7060;43.770;4.008;2023-03-14T00:54:33;100429.13;;;11.01;72.51
13974;BME280;7060;43.770;4.008;2023-03-14T00:57:02;100426.06;;;10.96;72.78
13974;BME280;7060;43.770;4.008;2023-03-14T00:59:30;100426.53;;;10.92;72.26
13974;BME280;7060;43.770;4.008;2023-03-14T01:01:59;100421.97;;;10.84;72.61
13974;BME280;7060;43.770;4.008;2023-03-14T01:04:29;100434.41;;;10.75;72.83
13974;BME280;7060;43.770;4.008;2023-03-14T01:06:58;100435.03;;;10.69;73.12
13974;BME280;7060;43.770;4.008;2023-03-14T01:09:26;100435.03;;;10.69;73.51
13974;BME280;7060;43.770;4.008;2023-03-14T01:11:55;100427.31;;;10.66;73.23
13974;BME280;7060;43.770;4.008;2023-03-14T01:14:23;100431.97;;;10.64;72.87
13974;BME280;7060;43.770;4.008;2023-03-14T01:16:52;100420.13;;;10.67;72.79
13974;BME280;7060;43.770;4.008;2023-03-14T01:19:20;100426.69;;;10.72;72.45
13974;BME280;7060;43.770;4.008;2023-03-14T01:21:50;100444.41;;;10.73;72.21
13974;BME280;7060;43.770;4.008;2023-03-14T01:24:19;100424.63;;;10.66;72.24
13974;BME280;7060;43.770;4.008;2023-03-14T01:26:47;100428.75;;;10.61;72.09
13974;BME280;7060;43.770;4.008;2023-03-14T01:29:16;100428.38;;;10.56;71.95
13974;BME280;7060;43.770;4.008;2023-03-14T01:31:44;100428.22;;;10.57;72.05
13974;BME280;7060;43.770;4.008;2023-03-14T01:34:13;100427.53;;;10.55;72.38
13974;BME280;7060;43.770;4.008;2023-03-14T01:36:42;100427.31;;;10.48;72.34
13974;BME280;7060;43.770;4.008;2023-03-14T01:39:12;100438.63;;;10.42;72.20
13974;BME280;7060;43.770;4.008;2023-03-14T01:41:41;100435.59;;;10.28;72.94
13974;BME280;7060;43.770;4.008;2023-03-14T01:44:10;100435.00;;;10.16;73.46
13974;BME280;7060;43.770;4.008;2023-03-14T01:46:40;100429.56;;;10.08;73.63
13974;BME280;7060;43.770;4.008;2023-03-14T01:49:19;100420.91;;;9.96;73.47
13974;BME280;7060;43.770;4.008;2023-03-14T01:52:00;100423.66;;;10.04;73.54
13974;BME280;7060;43.770;4.008;2023-03-14T01:54:35;100431.09;;;10.10;72.92
13974;BME280;7060;43.770;4.008;2023-03-14T01:57:08;100399.97;;;10.19;72.83
13974;BME280;7060;43.770;4.008;2023-03-14T01:59:41;100400.97;;;10.18;72.65
13974;BME280;7060;43.770;4.008;2023-03-14T02:02:12;100406.81;;;10.22;72.70
13974;BME280;7060;43.770;4.008;2023-03-14T02:04:41;100412.41;;;10.28;72.34
13974;BME280;7060;43.770;4.008;2023-03-14T02:07:14;100393.41;;;10.31;72.30
13974;BME280;7060;43.770;4.008;2023-03-14T02:09:56;100399.13;;;10.36;72.62
13974;BME280;7060;43.770;4.008;2023-03-14T02:12:30;100398.28;;;10.36;72.47
13974;BME280;7060;43.770;4.008;2023-03-14T02:15:12;100388.59;;;10.35;72.81
13974;BME280;7060;43.770;4.008;2023-03-14T02:18:12;100384.78;;;10.37;72.46
13974;BME280;7060;43.770;4.008;2023-03-14T02:21:00;100378.97;;;10.42;71.92
13974;BME280;7060;43.770;4.008;2023-03-14T02:23:33;100372.34;;;10.46;71.39
13974;BME280;7060;43.770;4.008;2023-03-14T02:26:10;100367.69;;;10.48;70.84
13974;BME280;7060;43.770;4.008;2023-03-14T02:28:41;100344.16;;;10.34;71.36
13974;BME280;7060;43.770;4.008;2023-03-14T02:31:10;100360.84;;;10.53;70.53
13974;BME280;7060;43.770;4.008;2023-03-14T02:33:39;100365.88;;;10.57;69.78
13974;BME280;7060;43.770;4.008;2023-03-14T02:36:10;100349.31;;;10.53;69.39
13974;BME280;7060;43.770;4.008;2023-03-14T02:38:45;100361.00;;;10.70;69.30
13974;BME280;7060;43.770;4.008;2023-03-14T02:41:16;100347.78;;;10.68;68.92
13974;BME280;7060;43.770;4.008;2023-03-14T02:43:57;100223.81;;;10.00;68.51
13974;BME280;7060;43.770;4.008;2023-03-14T02:46:26;100346.53;;;10.80;68.36
13974;BME280;7060;43.770;4.008;2023-03-14T02:48:57;100352.81;;;10.89;67.49
13974;BME280;7060;43.770;4.008;2023-03-14T02:51:27;100355.31;;;10.91;67.57
13974;BME280;7060;43.770;4.008;2023-03-14T02:53:56;100355.16;;;10.92;66.98
13974;BME280;7060;43.770;4.008;2023-03-14T02:56:25;100354.69;;;10.97;66.56
13974;BME280;7060;43.770;4.008;2023-03-14T02:58:57;100362.72;;;10.97;66.50
13974;BME280;7060;43.770;4.008;2023-03-14T03:01:35;100365.72;;;10.94;66.11
13974;BME280;7060;43.770;4.008;2023-03-14T03:04:04;100368.06;;;10.97;65.72
13974;BME280;7060;43.770;4.008;2023-03-14T03:06:33;100366.09;;;10.99;64.93
13974;BME280;7060;43.770;4.008;2023-03-14T03:09:01;100350.88;;;10.99;64.36
13974;BME280;7060;43.770;4.008;2023-03-14T03:11:30;100356.41;;;11.06;63.57
13974;BME280;7060;43.770;4.008;2023-03-14T03:14:00;100349.13;;;11.16;63.00
13974;BME280;7060;43.770;4.008;2023-03-14T03:16:29;100348.13;;;11.17;62.60
13974;BME280;7060;43.770;4.008;2023-03-14T03:18:59;100334.94;;;11.24;62.73
13974;BME280;7060;43.770;4.008;2023-03-14T03:21:27;100322.38;;;11.16;62.81
13974;BME280;7060;43.770;4.008;2023-03-14T03:23:56;100331.13;;;11.26;62.78
13974;BME280;7060;43.770;4.008;2023-03-14T03:26:24;100330.59;;;11.23;62.30
13974;BME280;7060;43.770;4.008;2023-03-14T03:28:53;100337.09;;;11.20;62.04
13974;BME280;7060;43.770;4.008;2023-03-14T03:31:24;100336.44;;;11.18;61.96
13974;BME280;7060;43.770;4.008;2023-03-14T03:33:52;100344.75;;;11.15;61.71
13974;BME280;7060;43.770;4.008;2023-03-14T03:36:21;100334.59;;;11.18;61.40
13974;BME280;7060;43.770;4.008;2023-03-14T03:38:50;100341.16;;;11.24;61.34
13974;BME280;7060;43.770;4.008;2023-03-14T03:41:19;100340.66;;;11.29;61.13
13974;BME280;7060;43.770;4.008;2023-03-14T03:43:49;100344.19;;;11.29;60.68
13974;BME280;7060;43.770;4.008;2023-03-14T03:46:18;100343.00;;;11.32;61.00
13974;BME280;7060;43.770;4.008;2023-03-14T03:48:48;100339.00;;;11.36;60.00
13974;BME280;7060;43.770;4.008;2023-03-14T03:51:17;100346.88;;;11.37;59.88
13974;BME280;7060;43.770;4.008;2023-03-14T03:53:47;100335.84;;;11.40;59.01
13974;BME280;7060;43.770;4.008;2023-03-14T03:56:22;100343.56;;;11.43;59.67
13974;BME280;7060;43.770;4.008;2023-03-14T03:58:51;100346.75;;;11.47;59.46
13974;BME280;7060;43.770;4.008;2023-03-14T04:01:19;100346.13;;;11.53;59.06
13974;BME280;7060;43.770;4.008;2023-03-14T04:03:52;100347.28;;;11.50;58.78
13974;BME280;7060;43.770;4.008;2023-03-14T04:06:22;100342.28;;;11.56;59.19
13974;BME280;7060;43.770;4.008;2023-03-14T04:08:54;100338.63;;;11.57;58.81
13974;BME280;7060;43.770;4.008;2023-03-14T04:11:40;100336.59;;;11.59;58.97
13974;BME280;7060;43.770;4.008;2023-03-14T04:14:15;100335.78;;;11.58;59.40
13974;BME280;7060;43.770;4.008;2023-03-14T04:16:43;100330.06;;;11.61;59.38
13974;BME280;7060;43.770;4.008;2023-03-14T04:19:16;100334.75;;;11.59;58.71
13974;BME280;7060;43.770;4.008;2023-03-14T04:21:45;100334.94;;;11.58;58.47
13974;BME280;7060;43.770;4.008;2023-03-14T04:24:14;100308.94;;;11.42;58.82
13974;BME280;7060;43.770;4.008;2023-03-14T04:26:46;100335.78;;;11.58;58.06
13974;BME280;7060;43.770;4.008;2023-03-14T04:29:14;100343.81;;;11.58;57.68
13974;BME280;7060;43.770;4.008;2023-03-14T04:31:45;100346.97;;;11.62;57.51
13974;BME280;7060;43.770;4.008;2023-03-14T04:34:13;100334.25;;;11.64;57.92
13974;BME280;7060;43.770;4.008;2023-03-14T04:36:49;100340.13;;;11.67;58.01
13974;BME280;7060;43.770;4.008;2023-03-14T04:39:23;100351.69;;;11.68;58.19
13974;BME280;7060;43.770;4.008;2023-03-14T04:41:59;100359.56;;;11.69;58.20
13974;BME280;7060;43.770;4.008;2023-03-14T04:44:28;100354.38;;;11.68;58.24
13974;BME280;7060;43.770;4.008;2023-03-14T04:46:57;100357.38;;;11.65;57.68
13974;BME280;7060;43.770;4.008;2023-03-14T04:49:25;100357.03;;;11.68;58.05
13974;BME280;7060;43.770;4.008;2023-03-14T04:51:55;100348.00;;;11.69;57.82
13974;BME280;7060;43.770;4.008;2023-03-14T04:54:26;100354.69;;;11.65;57.97
13974;BME280;7060;43.770;4.008;2023-03-14T04:56:57;100349.50;;;11.63;57.65
13974;BME280;7060;43.770;4.008;2023-03-14T04:59:30;100353.00;;;11.64;58.11
13974;BME280;7060;43.770;4.008;2023-03-14T05:02:07;100342.63;;;11.61;58.11
13974;BME280;7060;43.770;4.008;2023-03-14T05:04:46;100342.47;;;11.62;58.04
13974;BME280;7060;43.770;4.008;2023-03-14T05:07:35;100339.09;;;11.60;58.38
13974;BME280;7060;43.770;4.008;2023-03-14T05:10:23;100343.97;;;11.57;58.77
13974;BME280;7060;43.770;4.008;2023-03-14T05:13:10;100334.41;;;11.54;59.02
13974;BME280;7060;43.770;4.008;2023-03-14T05:16:05;100333.59;;;11.53;58.73
13974;BME280;7060;43.770;4.008;2023-03-14T05:18:54;100337.94;;;11.54;59.40
13974;BME280;7060;43.770;4.008;2023-03-14T05:21:41;100337.25;;;11.52;58.98
13974;BME280;7060;43.770;4.008;2023-03-14T05:24:28;100335.56;;;11.51;59.22
13974;BME280;7060;43.770;4.008;2023-03-14T05:26:57;100333.59;;;11.53;58.62
13974;BME280;7060;43.770;4.008;2023-03-14T05:29:40;100338.78;;;11.55;58.71
13974;BME280;7060;43.770;4.008;2023-03-14T05:32:24;100330.06;;;11.53;58.94
13974;BME280;7060;43.770;4.008;2023-03-14T05:35:12;100325.88;;;11.50;58.93
13974;BME280;7060;43.770;4.008;2023-03-14T05:38:17;100332.06;;;11.51;59.34
13974;BME280;7060;43.770;4.008;2023-03-14T05:41:05;100319.50;;;11.51;59.34
13974;BME280;7060;43.770;4.008;2023-03-14T05:44:00;100330.22;;;11.51;59.10
13974;BME280;7060;43.770;4.008;2023-03-14T05:46:52;100326.53;;;11.52;59.42
13974;BME280;7060;43.770;4.008;2023-03-14T05:49:30;100328.06;;;11.55;59.52
13974;BME280;7060;43.770;4.008;2023-03-14T05:52:07;100322.56;;;11.57;59.94
13974;BME280;7060;43.770;4.008;2023-03-14T05:54:36;100321.03;;;11.54;59.87
13974;BME280;7060;43.770;4.008;2023-03-14T05:57:32;100320.50;;;11.50;60.14
13974;BME280;7060;43.770;4.008;2023-03-14T06:00:23;100311.28;;;11.45;60.04
13974;BME280;7060;43.770;4.008;2023-03-14T06:03:04;100317.78;;;11.42;60.24
13974;BME280;7060;43.770;4.008;2023-03-14T06:05:37;100314.28;;;11.42;60.33
13974;BME280;7060;43.770;4.008;2023-03-14T06:08:05;100315.81;;;11.44;60.21
13974;BME280;7060;43.770;4.008;2023-03-14T06:10:35;100331.69;;;11.46;60.50
13974;BME280;7060;43.770;4.008;2023-03-14T06:13:05;100335.06;;;11.48;60.46
13974;BME280;7060;43.770;4.008;2023-03-14T06:15:34;100328.88;;;11.47;60.69
13974;BME280;7060;43.770;4.008;2023-03-14T06:18:03;100337.91;;;11.46;60.72
13974;BME280;7060;43.770;4.008;2023-03-14T06:20:35;100326.34;;;11.46;60.87
13974;BME280;7060;43.770;4.008;2023-03-14T06:23:09;100327.50;;;11.43;61.54
13974;BME280;7060;43.770;4.008;2023-03-14T06:25:37;100334.69;;;11.43;61.60
13974;BME280;7060;43.770;4.008;2023-03-14T06:28:07;100331.19;;;11.42;62.02
13974;BME280;7060;43.770;4.008;2023-03-14T06:30:36;100332.69;;;11.45;61.84
13974;BME280;7060;43.770;4.008;2023-03-14T06:33:05;100336.69;;;11.41;62.35
13974;BME280;7060;43.770;4.008;2023-03-14T06:35:33;100331.50;;;11.39;62.18
13974;BME280;7060;43.770;4.008;2023-03-14T06:38:02;100337.69;;;11.40;61.98
13974;BME280;7060;43.770;4.008;2023-03-14T06:40:31;100317.13;;;11.40;62.13
13974;BME280;7060;43.770;4.008;2023-03-14T06:43:07;100327.50;;;11.43;62.24
13974;BME280;7060;43.770;4.008;2023-03-14T06:45:37;100327.66;;;11.42;62.41
13974;BME280;7060;43.770;4.008;2023-03-14T06:48:06;100324.66;;;11.45;62.61
13974;BME280;7060;43.770;4.008;2023-03-14T06:50:47;100323.81;;;11.44;62.65
13974;BME280;7060;43.770;4.008;2023-03-14T06:53:16;100329.69;;;11.48;62.73
13974;BME280;7060;43.770;4.008;2023-03-14T06:55:45;100327.88;;;11.48;62.65
13974;BME280;7060;43.770;4.008;2023-03-14T06:58:18;100332.22;;;11.49;62.72
13974;BME280;7060;43.770;4.008;2023-03-14T07:00:46;100336.75;;;11.49;62.56
13974;BME280;7060;43.770;4.008;2023-03-14T07:03:20;100327.19;;;11.46;62.65
13974;BME280;7060;43.770;4.008;2023-03-14T07:05:50;100320.69;;;11.49;62.71
13974;BME280;7060;43.770;4.008;2023-03-14T07:08:19;100327.88;;;11.48;61.38
13974;BME280;7060;43.770;4.008;2023-03-14T07:10:47;100340.44;;;11.56;60.33
13974;BME280;7060;43.770;4.008;2023-03-14T07:13:19;100345.81;;;11.64;60.34
13974;BME280;7060;43.770;4.008;2023-03-14T07:15:55;100355.03;;;11.70;59.56
13974;BME280;7060;43.770;4.008;2023-03-14T07:18:24;100349.38;;;11.73;59.14
13974;BME280;7060;43.770;4.008;2023-03-14T07:20:52;100368.31;;;11.79;57.93
13974;BME280;7060;43.770;4.008;2023-03-14T07:23:22;100372.84;;;11.87;57.72
13974;BME280;7060;43.770;4.008;2023-03-14T07:25:52;100380.22;;;11.93;57.78
13974;BME280;7060;43.770;4.008;2023-03-14T07:28:25;100382.91;;;11.93;57.76
13974;BME280;7060;43.770;4.008;2023-03-14T07:31:00;100389.97;;;12.02;57.78
13974;BME280;7060;43.770;4.008;2023-03-14T07:33:37;100403.72;;;12.07;57.70
13974;BME280;7060;43.770;4.008;2023-03-14T07:36:07;100392.84;;;12.09;57.03
13974;BME280;7060;43.770;4.008;2023-03-14T07:38:37;100389.84;;;12.12;56.89
13974;BME280;7060;43.770;4.008;2023-03-14T07:41:25;100380.97;;;12.11;56.94
13974;BME280;7060;43.770;4.008;2023-03-14T07:44:15;100403.41;;;12.10;57.16
13974;BME280;7060;43.770;4.008;2023-03-14T07:46:45;100409.75;;;12.09;56.43
13974;BME280;7060;43.770;4.008;2023-03-14T07:49:16;100399.72;;;12.11;56.41
13974;BME280;7060;43.770;4.008;2023-03-14T07:51:47;100416.78;;;12.10;55.83
13974;BME280;7060;43.770;4.008;2023-03-14T07:54:16;100422.16;;;12.10;55.93
13974;BME280;7060;43.770;4.008;2023-03-14T07:56:47;100427.50;;;12.10;55.35
13974;BME280;7060;43.770;4.008;2023-03-14T07:59:16;100436.22;;;12.12;54.26
13974;BME280;7060;43.770;4.008;2023-03-14T08:01:45;100429.53;;;12.16;53.17
13974;BME280;7060;43.770;4.008;2023-03-14T08:04:14;100426.53;;;12.19;52.77
13974;BME280;7060;43.770;4.008;2023-03-14T08:06:42;100439.28;;;12.17;52.17
13974;BME280;7060;43.770;4.008;2023-03-14T08:09:11;100445.97;;;12.21;52.63
13974;BME280;7060;43.770;4.008;2023-03-14T08:11:39;100459.38;;;12.21;52.30
13974;BME280;7060;43.770;4.008;2023-03-14T08:14:08;100464.69;;;12.13;52.66
13974;BME280;7060;43.770;4.008;2023-03-14T08:16:39;100470.38;;;12.10;50.44
13974;BME280;7060;43.770;4.008;2023-03-14T08:19:07;100467.50;;;12.04;49.49
13974;BME280;7060;43.770;4.008;2023-03-14T08:21:37;100469.88;;;12.07;49.37
13974;BME280;7060;43.770;4.008;2023-03-14T08:24:05;100475.53;;;12.04;49.74
13974;BME280;7060;43.770;4.008;2023-03-14T08:26:35;100467.19;;;12.07;49.42
13974;BME280;7060;43.770;4.008;2023-03-14T08:29:03;100472.91;;;12.12;49.57
13974;BME280;7060;43.770;4.008;2023-03-14T08:31:32;100452.94;;;12.06;49.43
13974;BME280;7060;43.770;4.008;2023-03-14T08:34:02;100476.38;;;12.04;49.47
13974;BME280;7060;43.770;4.008;2023-03-14T08:36:31;100478.91;;;12.06;49.53
13974;BME280;7060;43.770;4.008;2023-03-14T08:39:00;100484.44;;;12.04;50.01
13974;BME280;7060;43.770;4.008;2023-03-14T08:41:31;100490.47;;;12.06;50.08
13974;BME280;7060;43.770;4.008;2023-03-14T08:43:59;100493.16;;;12.06;49.87
13974;BME280;7060;43.770;4.008;2023-03-14T08:46:28;100506.22;;;12.09;50.59
13974;BME280;7060;43.770;4.008;2023-03-14T08:48:57;100486.78;;;12.07;49.95
13974;BME280;7060;43.770;4.008;2023-03-14T08:51:27;100507.91;;;12.10;49.74
13974;BME280;7060;43.770;4.008;2023-03-14T08:53:56;100495.19;;;12.12;49.39
13974;BME280;7060;43.770;4.008;2023-03-14T08:56:24;100498.50;;;12.14;49.16
13974;BME280;7060;43.770;4.008;2023-03-14T08:58:53;100521.34;;;12.18;49.58
13974;BME280;7060;43.770;4.008;2023-03-14T09:01:21;100520.19;;;12.21;49.91
13974;BME280;7060;43.770;4.008;2023-03-14T09:03:51;100533.22;;;12.16;49.93
13974;BME280;7060;43.770;4.008;2023-03-14T09:06:20;100535.75;;;12.17;49.24
13974;BME280;7060;43.770;4.008;2023-03-14T09:08:50;100552.56;;;12.28;49.26
13974;BME280;7060;43.770;4.008;2023-03-14T09:11:18;100554.91;;;12.31;49.22
13974;BME280;7060;43.770;4.008;2023-03-14T09:13:46;100553.75;;;12.33;49.28
13974;BME280;7060;43.770;4.008;2023-03-14T09:16:15;100558.97;;;12.35;49.48
13974;BME280;7060;43.770;4.008;2023-03-14T09:18:43;100565.31;;;12.34;50.12
13974;BME280;7060;43.770;4.008;2023-03-14T09:21:12;100562.31;;;12.37;50.05
13974;BME280;7060;43.770;4.008;2023-03-14T09:23:42;100555.81;;;12.39;50.20
13974;BME280;7060;43.770;4.008;2023-03-14T09:26:14;100580.41;;;12.43;50.32
13974;BME280;7060;43.770;4.008;2023-03-14T09:28:42;100584.47;;;12.47;49.89
13974;BME280;7060;43.770;4.008;2023-03-14T09:31:12;100596.38;;;12.52;50.08
13974;BME280;7060;43.770;4.008;2023-03-14T09:33:40;100593.66;;;12.44;50.74
13974;BME280;7060;43.770;4.008;2023-03-14T09:36:09;100606.75;;;12.47;50.27
13974;BME280;7060;43.770;4.008;2023-03-14T09:38:37;100606.94;;;12.54;50.86
13974;BME280;7060;43.770;4.008;2023-03-14T09:41:16;100603.28;;;12.55;50.05
13974;BME280;7060;43.770;4.008;2023-03-14T09:43:46;100593.88;;;12.51;49.95
13974;BME280;7060;43.770;4.008;2023-03-14T09:46:18;100621.25;;;12.63;50.11
13974;BME280;7060;43.770;4.008;2023-03-14T09:48:46;100621.75;;;12.66;50.42
13974;BME280;7060;43.770;4.008;2023-03-14T09:51:17;100617.56;;;12.72;50.60
13974;BME280;7060;43.770;4.008;2023-03-14T09:53:49;100604.00;;;12.73;50.46
13974;BME280;7060;43.770;4.008;2023-03-14T09:56:22;100630.84;;;12.81;50.17
13974;BME280;7060;43.770;4.008;2023-03-14T09:58:54;100625.38;;;12.91;49.69
13974;BME280;7060;43.770;4.008;2023-03-14T10:01:25;100615.47;;;13.00;49.60
13974;BME280;7060;43.770;4.008;2023-03-14T10:04:00;100619.19;;;13.07;50.15
13974;BME280;7060;43.770;4.008;2023-03-14T10:06:31;100632.63;;;13.15;50.19
13974;BME280;7060;43.770;4.008;2023-03-14T10:08:59;100641.69;;;13.30;50.07
13974;BME280;7060;43.770;4.008;2023-03-14T10:11:30;100617.25;;;13.41;49.23
13974;BME280;7060;43.770;4.008;2023-03-14T10:14:05;100625.47;;;13.64;49.51
13974;BME280;7060;43.770;4.008;2023-03-14T10:16:39;100633.69;;;13.79;48.43
13974;BME280;7060;43.770;4.008;2023-03-14T10:19:10;100642.41;;;13.97;48.58
13974;BME280;7060;43.770;4.008;2023-03-14T10:21:40;100655.31;;;14.10;47.72
13974;BME280;7060;43.770;4.008;2023-03-14T10:24:15;100640.88;;;14.19;47.20
13974;BME280;7060;43.770;4.008;2023-03-14T10:26:49;100649.41;;;14.31;47.51
13974;BME280;7060;43.770;4.008;2023-03-14T10:29:20;100643.16;;;14.38;47.54
13974;BME280;7060;43.770;4.008;2023-03-14T10:31:54;100648.69;;;14.45;47.69
13974;BME280;7060;43.770;4.008;2023-03-14T10:34:25;100651.06;;;14.40;47.24
13974;BME280;7060;43.770;4.008;2023-03-14T10:36:56;100625.56;;;14.28;47.16
13974;BME280;7060;43.770;4.008;2023-03-14T10:39:38;100524.69;;;13.84;47.66
13974;BME280;7060;43.770;4.008;2023-03-14T10:42:19;100640.50;;;14.85;47.46
13974;BME280;7060;43.770;4.008;2023-03-14T10:44:55;100650.97;;;15.11;47.31
13974;BME280;7060;43.770;4.008;2023-03-14T10:47:25;100651.16;;;15.33;47.66
13974;BME280;7060;43.770;4.008;2023-03-14T10:49:55;100653.91;;;15.47;45.96
13974;BME280;7060;43.770;4.008;2023-03-14T10:52:26;100664.44;;;15.65;45.67
13974;BME280;7060;43.770;4.008;2023-03-14T10:55:15;100676.38;;;15.85;44.97
13974;BME280;7060;43.770;4.008;2023-03-14T10:57:44;100693.72;;;16.06;44.29
13974;BME280;7060;43.770;4.008;2023-03-14T11:00:16;100691.50;;;16.09;43.52
13974;BME280;7060;43.770;4.008;2023-03-14T11:02:56;100688.63;;;16.11;45.24
13974;BME280;7060;43.770;4.008;2023-03-14T11:05:31;100681.84;;;16.30;45.53
13974;BME280;7060;43.770;4.008;2023-03-14T11:08:09;100673.69;;;16.52;44.48
13974;BME280;7060;43.770;4.008;2023-03-14T11:10:40;100673.91;;;16.66;43.91
13974;BME280;7060;43.770;4.008;2023-03-14T11:13:16;100661.69;;;16.84;42.36
13974;BME280;7060;43.770;4.008;2023-03-14T11:15:53;100668.09;;;16.98;41.54
13974;BME280;7060;43.770;4.008;2023-03-14T11:21:52;100686.69;;;17.22;39.47
13974;BME280;7060;43.770;4.008;2023-03-14T11:24:48;100675.50;;;17.25;39.18
13974;BME280;7060;43.770;4.008;2023-03-14T11:27:22;100679.03;;;17.26;38.83
13974;BME280;7060;43.770;4.008;2023-03-14T11:29:55;100670.19;;;17.32;38.81
13974;BME280;7060;43.770;4.008;2023-03-14T11:32:36;100678.47;;;17.31;38.58
13974;BME280;7060;43.770;4.008;2023-03-14T11:35:16;100684.06;;;17.29;38.56
13974;BME280;7060;43.770;4.008;2023-03-14T11:37:47;100684.06;;;17.29;39.81
13974;BME280;7060;43.770;4.008;2023-03-14T11:40:21;100671.81;;;17.33;39.26
13974;BME280;7060;43.770;4.008;2023-03-14T11:42:55;100683.72;;;17.39;39.19
13974;BME280;7060;43.770;4.008;2023-03-14T11:45:32;100684.84;;;17.44;38.64
13974;BME280;7060;43.770;4.008;2023-03-14T11:48:17;100636.28;;;17.15;38.20
13974;BME280;7060;43.770;4.008;2023-03-14T11:50:52;100687.34;;;17.46;38.93
13974;BME280;7060;43.770;4.008;2023-03-14T11:53:34;100688.72;;;17.56;38.91
13974;BME280;7060;43.770;4.008;2023-03-14T11:56:11;100677.91;;;17.56;37.97
13974;BME280;7060;43.770;4.008;2023-03-14T11:58:48;100681.72;;;17.62;37.97
13974;BME280;7060;43.770;4.008;2023-03-14T12:01:21;100686.53;;;17.67;38.19
13974;BME280;7060;43.770;4.008;2023-03-14T12:03:56;100691.75;;;17.68;38.19
13974;BME280;7060;43.770;4.008;2023-03-14T12:06:29;100678.06;;;17.70;37.72
13974;BME280;7060;43.770;4.008;2023-03-14T12:09:03;100679.91;;;17.69;37.97
13974;BME280;7060;43.770;4.008;2023-03-14T12:11:35;100672.66;;;17.70;38.13
13974;BME280;7060;43.770;4.008;2023-03-14T12:14:19;100675.63;;;17.75;37.85
13974;BME280;7060;43.770;4.008;2023-03-14T12:16:53;100672.66;;;17.70;38.59
13974;BME280;7060;43.770;4.008;2023-03-14T12:19:28;100646.63;;;17.47;38.06
13974;BME280;7060;43.770;4.008;2023-03-14T12:22:00;100666.66;;;17.74;38.17
13974;BME280;7060;43.770;4.008;2023-03-14T12:24:31;100686.44;;;17.75;36.52
13974;BME280;7060;43.770;4.008;2023-03-14T12:27:04;100672.19;;;17.66;36.48
13974;BME280;7060;43.770;4.008;2023-03-14T12:29:57;100680.50;;;17.65;36.60
13974;BME280;7060;43.770;4.008;2023-03-14T12:32:30;100681.13;;;17.67;36.24
13974;BME280;7060;43.770;4.008;2023-03-14T12:35:07;100654.81;;;17.54;35.61
13974;BME280;7060;43.770;4.008;2023-03-14T12:37:59;100673.41;;;17.64;35.90
13974;BME280;7060;43.770;4.008;2023-03-14T12:40:31;100666.59;;;17.68;35.43
13974;BME280;7060;43.770;4.008;2023-03-14T12:43:02;100683.06;;;17.73;35.33
13974;BME280;7060;43.770;4.008;2023-03-14T12:45:32;100668.28;;;17.69;36.10
13974;BME280;7060;43.770;4.008;2023-03-14T12:48:10;100666.25;;;17.56;36.40
13974;BME280;7060;43.770;4.008;2023-03-14T12:50:44;100667.06;;;17.35;36.17
13974;BME280;7060;43.770;4.008;2023-03-14T12:53:44;100671.31;;;17.23;36.44
13974;BME280;7060;43.770;4.008;2023-03-14T12:56:22;100631.13;;;16.99;36.65
13974;BME280;7060;43.770;4.008;2023-03-14T13:01:53;100658.56;;;17.17;37.90
13974;BME280;7060;43.770;4.008;2023-03-14T13:04:29;100638.88;;;17.02;37.02
13974;BME280;7060;43.770;4.008;2023-03-14T13:07:11;100657.88;;;16.93;37.74
13974;BME280;7060;43.770;4.008;2023-03-14T13:10:02;100660.13;;;16.75;37.76
13974;BME280;7060;43.770;4.008;2023-03-14T13:12:38;100665.03;;;16.57;37.73
13974;BME280;7060;43.770;4.008;2023-03-14T13:15:17;100630.97;;;16.26;37.37
13974;BME280;7060;43.770;4.008;2023-03-14T13:17:48;100647.91;;;16.35;38.39
13974;BME280;7060;43.770;4.008;2023-03-14T13:20:22;100661.50;;;16.42;38.67
13974;BME280;7060;43.770;4.008;2023-03-14T13:22:51;100658.78;;;16.56;38.79
13974;BME280;7060;43.770;4.008;2023-03-14T13:25:21;100620.16;;;16.56;38.49
13974;BME280;7060;43.770;4.008;2023-03-14T13:27:52;100646.50;;;16.83;37.64
13974;BME280;7060;43.770;4.008;2023-03-14T13:30:24;100539.81;;;16.07;37.54
13974;BME280;7060;43.770;4.008;2023-03-14T13:32:55;100648.13;;;16.78;36.79
13974;BME280;7060;43.770;4.008;2023-03-14T13:35:26;100640.50;;;16.67;36.43
13974;BME280;7060;43.770;4.008;2023-03-14T13:37:56;100650.22;;;16.53;36.73